createdAt,value
2019-05-22T00:09:32.194Z,98950.11
2019-05-22T00:19:33.102Z,98955.97
2019-05-22T00:29:34.917Z,98957.09
2019-05-22T00:39:35.671Z,98964.20
2019-05-22T00:49:37.389Z,98969.32
2019-05-22T00:59:38.187Z,98971.53
2019-05-22T01:09:39.086Z,98987.33
2019-05-22T01:19:39.952Z,98994.73
2019-05-22T01:29:40.914Z,98994.92
2019-05-22T01:39:48.652Z,98990.45
2019-05-22T01:49:51.176Z,98993.91
2019-05-22T01:59:51.943Z,98993.07
2019-05-22T02:09:54.631Z,98991.84
2019-05-22T02:19:55.938Z,99005.21
2019-05-22T02:29:56.690Z,98998.65
2019-05-22T02:39:59.411Z,98993.61
2019-05-22T02:50:00.093Z,98990.00
2019-05-22T03:00:04.588Z,99001.81
2019-05-22T03:10:07.724Z,98994.07
2019-05-22T03:20:11.289Z,98995.35
2019-05-22T03:30:29.539Z,98999.66
2019-05-22T03:40:30.465Z,99016.36
2019-05-22T03:50:31.309Z,99026.18
2019-05-22T04:00:32.535Z,99022.75
2019-05-22T04:10:40.861Z,99032.84
2019-05-22T04:20:40.219Z,99039.01
2019-05-22T04:30:42.751Z,99054.67
2019-05-22T04:40:45.314Z,99065.07
2019-05-22T04:50:46.839Z,99078.34
2019-05-22T05:00:47.702Z,99072.20
2019-05-22T05:10:48.574Z,99077.45
2019-05-22T05:20:49.457Z,99079.96
2019-05-22T05:30:50.488Z,99088.76
2019-05-22T05:40:51.401Z,99093.72
2019-05-22T05:51:04.609Z,99114.39
2019-05-22T06:01:12.089Z,99118.41
2019-05-22T06:11:39.328Z,99130.24
2019-05-22T06:21:40.392Z,99143.64
2019-05-22T06:31:47.913Z,99156.88
2019-05-22T06:41:48.815Z,99166.77
2019-05-22T06:51:49.587Z,99173.75
2019-05-22T07:01:50.880Z,99176.27
2019-05-22T07:11:51.752Z,99180.91
2019-05-22T07:21:52.455Z,99202.72
2019-05-22T07:31:55.419Z,99211.42
2019-05-22T07:41:57.251Z,99201.70
2019-05-22T07:52:01.696Z,99209.84
2019-05-22T08:02:01.067Z,99220.09
2019-05-22T08:12:01.881Z,99231.95
2019-05-22T08:22:07.171Z,99243.62
2019-05-22T08:32:06.338Z,99259.83
2019-05-22T08:42:09.062Z,99262.10
2019-05-22T08:52:22.883Z,99266.22
2019-05-22T09:02:14.191Z,99265.08
2019-05-22T09:12:14.884Z,99272.50
2019-05-22T09:22:16.258Z,99283.55
2019-05-22T09:32:16.966Z,99283.91
2019-05-22T09:42:17.818Z,99291.63
2019-05-22T09:52:18.589Z,99297.30
2019-05-22T10:02:19.345Z,99307.42
2019-05-22T10:12:20.242Z,99320.69
2019-05-22T10:22:20.937Z,99330.64
2019-05-22T10:32:21.774Z,99335.64
2019-05-22T10:42:22.585Z,99340.13
2019-05-22T10:52:24.488Z,99338.25
2019-05-22T11:02:25.231Z,99341.08
2019-05-22T11:12:26.292Z,99323.91
2019-05-22T11:22:27.032Z,99323.13
2019-05-22T11:32:28.143Z,99325.20
2019-05-22T11:42:28.993Z,99332.32
2019-05-22T11:52:30.770Z,99330.80
2019-05-22T12:02:32.815Z,99335.73
2019-05-22T12:12:38.512Z,99335.53
2019-05-22T12:22:39.879Z,99332.98
2019-05-22T12:32:40.928Z,99332.88
2019-05-22T12:42:42.124Z,99324.93
2019-05-22T12:52:45.415Z,99329.86
2019-05-22T13:02:46.497Z,99331.41
2019-05-22T13:12:48.274Z,99322.82
2019-05-22T13:22:50.430Z,99315.90
2019-05-22T13:32:53.051Z,99310.45
2019-05-22T13:42:54.175Z,99316.20
2019-05-22T13:52:55.188Z,99305.63
2019-05-22T14:02:56.468Z,99298.95
2019-05-22T14:12:57.258Z,99307.58
2019-05-22T14:22:59.102Z,99309.72
2019-05-22T14:33:04.236Z,99308.39
2019-05-22T14:43:02.789Z,99298.66
2019-05-22T14:53:04.928Z,99302.44
2019-05-22T15:03:05.935Z,99307.92
2019-05-22T15:13:08.221Z,99298.09
2019-05-22T15:23:09.402Z,99296.72
2019-05-22T15:33:10.267Z,99297.29
2019-05-22T15:43:12.710Z,99291.05
2019-05-22T15:53:15.860Z,99284.59
2019-05-22T16:03:20.833Z,99274.23
2019-05-22T16:13:23.818Z,99286.55
2019-05-22T16:23:24.674Z,99273.12
2019-05-22T16:33:25.470Z,99270.81
2019-05-22T16:43:45.438Z,99269.00
2019-05-22T16:53:30.410Z,99258.49
2019-05-22T17:03:31.064Z,99262.52
2019-05-22T17:13:34.135Z,99263.09
2019-05-22T17:23:34.862Z,99259.80
2019-05-22T17:33:35.745Z,99254.45
2019-05-22T17:43:36.974Z,99262.82
2019-05-22T17:53:37.683Z,99257.15
2019-05-22T18:03:38.853Z,99255.41
2019-05-22T18:13:59.924Z,99251.65
2019-05-22T18:24:00.721Z,99254.13
2019-05-22T18:34:01.680Z,99258.66
2019-05-22T18:44:02.559Z,99255.93
2019-05-22T18:54:03.309Z,99261.72
2019-05-22T19:04:04.144Z,99262.18
2019-05-22T19:14:04.863Z,99254.59
2019-05-22T19:24:05.598Z,99255.44
2019-05-22T19:34:06.380Z,99262.31
2019-05-22T19:44:07.190Z,99269.20
2019-05-22T19:54:08.124Z,99278.61
2019-05-22T20:04:09.431Z,99285.48
2019-05-22T20:14:10.112Z,99294.85
2019-05-22T20:24:10.926Z,99293.56
2019-05-22T20:34:11.568Z,99291.43
2019-05-22T20:44:12.257Z,99299.27
2019-05-22T20:54:13.039Z,99302.15
2019-05-22T21:04:14.491Z,99294.04
2019-05-22T21:14:15.144Z,99301.34
2019-05-22T21:24:15.862Z,99301.29
2019-05-22T21:34:18.006Z,99311.14
2019-05-22T21:44:18.768Z,99315.62
2019-05-22T21:54:19.645Z,99315.37
2019-05-22T22:04:21.648Z,99320.61
2019-05-22T22:14:24.448Z,99325.44
2019-05-22T22:24:25.214Z,99322.88
2019-05-22T22:34:38.979Z,99326.77
2019-05-22T22:44:40.567Z,99335.17
2019-05-22T22:54:41.293Z,99327.81
2019-05-22T23:04:43.392Z,99327.80
2019-05-22T23:14:48.097Z,99328.38
2019-05-22T23:24:48.895Z,99336.29
2019-05-22T23:34:49.568Z,99336.04
2019-05-22T23:44:52.839Z,99334.70
2019-05-22T23:54:53.788Z,99336.29
